Amesbury, Massachusetts
Current Conditions -  °F | °C
As of 3:54 PM on Tuesday 25 Nov 2014 (Local Time) from KLWM Reporting Station
Clear Clear  
Wind Chill: 56°   Ceiling: Unl
Heat Index: 56°   Visibility: 10mi
Dew Point: 32°   Wind: 8mph
Humidity: 40%   Direction: 240°WSW
Pressure: 29.91"   Gusts: NA
Location:  42.86°N, 70.93°W
Report Text: KLWM 252054Z 24007KT 10SM CLR 13/00 A2991 RMK AO2 SLP128 T01330000 53013
Loading
Personal Weather Stations






























Interactive Weather Map New forecast layout! Learn more

10-Day Weather Forecast

Advertisements
Track Severe Weather on mobile